Opelika, AL

3:57 AM CDT on September 03, 2014 (GMT -0500)
Opelika, AL - Highland Ave. | Change Station
CLOSE
Current Station
Personal Weather Station
Location: Opelika, AL
Elevation: 856 ft
Nearby Weather Stations

Elev 856 ft 32.67 °N, 85.37 °W | Updated 6 seconds ago

Overcast
Overcast
74.1 °F
Feels Like 72 °F
N
3.6
Wind Variable Wind from West
Gusts 4.9 mph

Today
High -- | Low -- °F
--% Chance of Precip.
Yesterday
High -- | Low -- °F
Precip. -- in
6:17 AM 7:03 PM
First Quarter, 60% visible
Pressure 30.09 in
Visibility 10.0 miles
Clouds Mostly Cloudy 2400 ft
Overcast 2800 ft
Heat Index 72 °F
Dew Point 71 °F
Humidity 91%
Rainfall 0.00 in
Snow Depth Not available.
UV 0 out of 12
Pollen 9.20 out of 12
Air Quality Not available.
Flu Activity Not available.
METAR KAUO 030835Z 21006KT 10SM BKN024 OVC028 22/20 A3009 RMK AO1

More Conditions Fewer Conditions

Pressure 30.09 in
Visibility 10.0 miles
Clouds Mostly Cloudy 2400 ft
Overcast 2800 ft
Heat Index 72 °F
Dew Point 71 °F
Humidity 91%
Rainfall 0.00 in
Snow Depth Not available.
UV 0 out of 12
Pollen 9.20 out of 12
Air Quality Not available.
Flu Activity Not available.
METAR KAUO 030835Z 21006KT 10SM BKN024 OVC028 22/20 A3009 RMK AO1

More Conditions Fewer Conditions

10-Day Weather Forecast

Almanac

Astronomy

Sep. 03, 2014 Rise Set
Actual Time 6:17 AM CDT 7:03 PM CDT
Civil Twilight 5:52 AM CDT 7:28 PM CDT
Nautical Twilight 5:23 AM CDT 7:57 PM CDT
Astronomical Twilight 4:52 AM CDT 8:28 PM CDT
Moon 2:34 PM CDT 12:21 AM CDT
Length of Visible Light 13h 35m
Length of Day
12h 45m
Tomorrow will be 1m 55s shorter.
First Quarter, 60% of the Moon is Illuminated
Today
First Quarter
Sep 8
Full
Sep 15
Last Quarter
Sep 24
New
Oct 1
First Quarter

Today's Extremes

State Highs State Lows

Community

WunderPhotos

Upload Photos

1,749,902 photos uploaded!

Nearby

Snow Depth

Station Depth Elevation
No new snow has been reported.

Earthquake Activity

City Distance Mag. Time & Date
No recent earthquake activity has been reported nearby.
Minimum magnitude displayed is 2.5.

Coastal Water Temperatures

Place Temperature
No Stations Reporting

Nearby Weather Stations